Time;durP1;ratioP1;P1;durP2;ratioP2;P2;SDS_P1;SDS_P2;PMS_P1;PMS_P2;Temp;Humidity;BMP_temperature;BMP_pressure;BME280_temperature;BME280_humidity;BME280_pressure;Samples;Min_cycle;Max_cycle;Signal;HPM_P1;HPM_P2
2022/05/18 00:00:15;;;;;;;24.48;13.32;;;;;;;;;;4960773;28;20031;-88
2022/05/18 00:02:42;;;;;;;30.70;12.77;;;;;;;;;;4960226;28;20117;-89
2022/05/18 00:05:09;;;;;;;25.63;13.95;;;;;;;;;;4963269;28;20037;-89
2022/05/18 00:07:35;;;;;;;24.42;13.45;;;;;;;;;;4973403;28;20081;-89
2022/05/18 00:10:01;;;;;;;26.15;12.93;;;;;;;;;;4967492;28;20034;-89
2022/05/18 00:12:27;;;;;;;22.90;12.57;;;;;;;;;;4962914;28;20055;-89
2022/05/18 00:14:54;;;;;;;27.88;13.10;;;;;;;;;;4958690;28;20023;-88
2022/05/18 00:17:20;;;;;;;23.80;11.15;;;;;;;;;;4978507;28;20027;-89
2022/05/18 00:19:46;;;;;;;20.60;11.32;;;;;;;;;;4962999;28;20145;-89
2022/05/18 00:22:12;;;;;;;29.63;11.38;;;;;;;;;;4977685;28;20035;-89
2022/05/18 00:24:38;;;;;;;19.15;10.27;;;;;;;;;;4978140;28;20046;-88
2022/05/18 00:27:04;;;;;;;19.23;10.95;;;;;;;;;;4962923;28;20064;-88
2022/05/18 00:29:31;;;;;;;18.10;10.20;;;;;;;;;;4959176;28;20088;-89
2022/05/18 00:31:57;;;;;;;16.70;9.30;;;;;;;;;;4960662;28;20583;-88
2022/05/18 00:34:24;;;;;;;16.88;8.70;;;;;;;;;;4962307;28;20127;-89
2022/05/18 00:36:50;;;;;;;20.75;9.25;;;;;;;;;;4960055;28;20041;-88
2022/05/18 00:39:16;;;;;;;17.80;7.93;;;;;;;;;;4955045;28;20022;-89
2022/05/18 00:41:42;;;;;;;15.00;7.63;;;;;;;;;;4964117;28;20457;-89
2022/05/18 00:44:08;;;;;;;17.70;10.55;;;;;;;;;;4956244;28;20042;-90
2022/05/18 00:46:34;;;;;;;17.85;8.48;;;;;;;;;;4969939;28;20042;-89
2022/05/18 00:49:02;;;;;;;12.68;7.78;;;;;;;;;;4964053;28;20069;-89
2022/05/18 00:51:30;;;;;;;16.63;8.80;;;;;;;;;;4965372;28;20092;-89
2022/05/18 00:54:08;;;;;;;19.70;8.77;;;;;;;;;;4958344;28;20023;-89
2022/05/18 00:56:47;;;;;;;19.33;7.78;;;;;;;;;;4963500;28;20027;-89
2022/05/18 00:59:16;;;;;;;15.50;7.57;;;;;;;;;;4956423;28;20103;-89
2022/05/18 01:01:42;;;;;;;14.95;8.30;;;;;;;;;;4965123;28;20042;-89
2022/05/18 01:04:09;;;;;;;16.75;7.90;;;;;;;;;;4965526;28;20030;-88
2022/05/18 01:06:38;;;;;;;19.13;7.72;;;;;;;;;;4979173;28;20030;-89
2022/05/18 01:09:09;;;;;;;15.65;7.05;;;;;;;;;;4983413;28;20177;-89
2022/05/18 01:11:39;;;;;;;10.85;7.22;;;;;;;;;;4964976;28;20436;-88
2022/05/18 01:14:07;;;;;;;16.13;6.95;;;;;;;;;;4959541;28;20118;-89
2022/05/18 01:16:33;;;;;;;11.65;7.15;;;;;;;;;;4957744;28;20398;-89
2022/05/18 01:19:00;;;;;;;20.17;8.40;;;;;;;;;;4983068;28;20038;-89
2022/05/18 01:21:34;;;;;;;18.45;7.38;;;;;;;;;;4966796;28;20067;-89
2022/05/18 01:24:13;;;;;;;23.30;7.43;;;;;;;;;;4960494;28;20104;-89
2022/05/18 01:26:44;;;;;;;18.25;7.22;;;;;;;;;;4980912;28;20113;-89
2022/05/18 01:29:10;;;;;;;14.98;7.05;;;;;;;;;;4976415;28;20041;-90
2022/05/18 01:31:55;;;;;;;14.02;7.35;;;;;;;;;;4964613;28;20072;-89
2022/05/18 01:34:29;;;;;;;15.82;6.47;;;;;;;;;;4967487;28;20129;-89
2022/05/18 01:36:55;;;;;;;17.50;7.10;;;;;;;;;;4984557;28;20386;-89
2022/05/18 01:39:28;;;;;;;20.17;7.75;;;;;;;;;;4971565;28;20553;-89
2022/05/18 01:42:07;;;;;;;14.95;6.78;;;;;;;;;;4977601;28;20038;-89
2022/05/18 01:44:34;;;;;;;16.40;6.75;;;;;;;;;;4983127;28;20042;-89
2022/05/18 01:47:00;;;;;;;9.25;6.32;;;;;;;;;;4981628;28;20026;-89
2022/05/18 01:49:26;;;;;;;16.73;7.07;;;;;;;;;;4988104;28;20086;-89
2022/05/18 01:51:53;;;;;;;13.18;7.03;;;;;;;;;;4973414;28;20503;-89
2022/05/18 01:54:19;;;;;;;17.80;6.60;;;;;;;;;;4969972;28;20030;-89
2022/05/18 01:56:45;;;;;;;13.60;7.13;;;;;;;;;;4981022;28;21126;-89
2022/05/18 01:59:12;;;;;;;14.07;6.47;;;;;;;;;;4980746;28;20397;-89
2022/05/18 02:01:38;;;;;;;23.15;7.22;;;;;;;;;;4961872;28;20041;-89
2022/05/18 02:04:04;;;;;;;21.25;6.75;;;;;;;;;;4965420;28;20137;-89
2022/05/18 02:06:32;;;;;;;13.35;6.80;;;;;;;;;;4981243;28;20500;-89
2022/05/18 02:08:58;;;;;;;16.83;7.20;;;;;;;;;;4961551;28;20494;-90
2022/05/18 02:11:24;;;;;;;12.63;6.40;;;;;;;;;;4966748;28;20516;-89
2022/05/18 02:13:51;;;;;;;14.15;6.22;;;;;;;;;;4983255;28;20045;-89
2022/05/18 02:16:19;;;;;;;12.93;6.45;;;;;;;;;;4965360;28;20057;-88
2022/05/18 02:18:45;;;;;;;13.52;6.55;;;;;;;;;;4979651;28;20035;-89
2022/05/18 02:21:11;;;;;;;16.58;6.93;;;;;;;;;;4967627;28;20044;-88
2022/05/18 02:23:39;;;;;;;15.27;5.65;;;;;;;;;;4964123;28;20030;-88
2022/05/18 02:26:09;;;;;;;17.25;7.25;;;;;;;;;;4978426;28;20104;-89
2022/05/18 02:28:35;;;;;;;15.68;6.88;;;;;;;;;;4972519;28;20050;-88
2022/05/18 02:31:01;;;;;;;14.45;6.55;;;;;;;;;;4962338;28;20081;-88
2022/05/18 02:33:27;;;;;;;13.23;6.20;;;;;;;;;;4969301;28;20466;-89
2022/05/18 02:35:53;;;;;;;18.30;6.13;;;;;;;;;;4966070;28;20081;-89
2022/05/18 02:38:19;;;;;;;14.45;7.38;;;;;;;;;;4967672;28;20389;-89
2022/05/18 02:40:45;;;;;;;14.95;6.93;;;;;;;;;;4964712;28;20624;-89
2022/05/18 02:43:11;;;;;;;11.65;6.97;;;;;;;;;;4967487;28;20041;-89
2022/05/18 02:45:37;;;;;;;13.35;7.20;;;;;;;;;;4962874;28;20050;-89
2022/05/18 02:48:03;;;;;;;13.93;6.95;;;;;;;;;;4963652;28;20047;-89
2022/05/18 02:50:29;;;;;;;20.50;7.47;;;;;;;;;;4966669;28;20491;-89
2022/05/18 02:52:55;;;;;;;15.98;7.05;;;;;;;;;;4978461;28;20034;-90
2022/05/18 02:58:06;;;;;;;17.77;7.20;;;;;;;;;;4983685;28;20048;-89
2022/05/18 03:00:32;;;;;;;12.70;7.57;;;;;;;;;;4978535;28;20045;-88
2022/05/18 03:02:58;;;;;;;15.13;7.28;;;;;;;;;;4965906;28;20359;-89
2022/05/18 03:05:24;;;;;;;16.60;6.85;;;;;;;;;;4965252;28;20046;-89
2022/05/18 03:07:50;;;;;;;13.88;6.68;;;;;;;;;;4978605;28;20027;-89
2022/05/18 03:10:18;;;;;;;13.85;7.20;;;;;;;;;;4964122;28;20034;-89
2022/05/18 03:12:44;;;;;;;20.15;6.95;;;;;;;;;;4964783;28;20082;-89
2022/05/18 03:15:11;;;;;;;13.38;7.10;;;;;;;;;;4964620;28;20073;-89
2022/05/18 03:17:37;;;;;;;17.40;7.30;;;;;;;;;;4964548;28;20028;-89
2022/05/18 03:20:03;;;;;;;15.65;6.97;;;;;;;;;;4966840;28;20041;-89
2022/05/18 03:25:14;;;;;;;12.63;6.45;;;;;;;;;;4977501;28;20429;-89
2022/05/18 03:27:44;;;;;;;16.17;7.97;;;;;;;;;;4960418;28;20038;-89
2022/05/18 03:30:11;;;;;;;15.00;6.82;;;;;;;;;;4966332;28;20030;-89
2022/05/18 03:32:37;;;;;;;13.63;6.47;;;;;;;;;;4978360;28;20493;-89
2022/05/18 03:35:03;;;;;;;11.52;6.30;;;;;;;;;;4963328;28;20087;-90
2022/05/18 03:37:29;;;;;;;12.20;6.47;;;;;;;;;;4959749;28;20038;-90
2022/05/18 03:39:55;;;;;;;10.52;6.95;;;;;;;;;;4981912;28;20037;-89
2022/05/18 03:42:28;;;;;;;18.23;6.80;;;;;;;;;;4983348;28;20026;-89
2022/05/18 03:44:54;;;;;;;13.68;6.55;;;;;;;;;;4957607;28;20066;-89
2022/05/18 03:47:20;;;;;;;13.48;6.15;;;;;;;;;;4965524;28;20088;-89
2022/05/18 03:49:46;;;;;;;10.32;6.38;;;;;;;;;;4967613;28;20038;-89
2022/05/18 03:52:12;;;;;;;17.08;6.40;;;;;;;;;;4983018;28;20026;-89
2022/05/18 03:54:38;;;;;;;15.35;6.43;;;;;;;;;;4958291;28;20041;-89
2022/05/18 03:57:06;;;;;;;11.40;6.30;;;;;;;;;;4964219;28;20038;-89
2022/05/18 03:59:32;;;;;;;12.68;6.60;;;;;;;;;;4965481;28;20065;-89
2022/05/18 04:01:58;;;;;;;16.88;6.72;;;;;;;;;;4962685;28;20608;-89
2022/05/18 04:04:25;;;;;;;14.55;6.57;;;;;;;;;;4979247;28;20110;-89
2022/05/18 04:06:51;;;;;;;15.35;7.10;;;;;;;;;;4959088;28;20364;-89
2022/05/18 04:09:17;;;;;;;13.98;6.82;;;;;;;;;;4964251;28;20034;-90
2022/05/18 04:11:43;;;;;;;15.68;6.75;;;;;;;;;;4963877;28;20121;-88
2022/05/18 04:14:09;;;;;;;11.98;6.53;;;;;;;;;;4960915;28;20126;-89
2022/05/18 04:16:35;;;;;;;12.82;7.22;;;;;;;;;;4966702;28;20390;-89
2022/05/18 04:19:01;;;;;;;7.47;5.50;;;;;;;;;;4962984;28;20027;-88
2022/05/18 04:21:27;;;;;;;9.88;6.47;;;;;;;;;;4960637;28;20267;-89
2022/05/18 04:23:55;;;;;;;11.63;6.25;;;;;;;;;;4959847;28;20027;-89
2022/05/18 04:26:21;;;;;;;15.05;5.95;;;;;;;;;;4984486;28;20022;-89
2022/05/18 04:28:47;;;;;;;11.35;6.47;;;;;;;;;;4960788;28;20438;-89
2022/05/18 04:31:13;;;;;;;11.07;6.20;;;;;;;;;;4967626;28;20036;-89
2022/05/18 04:33:39;;;;;;;8.05;5.30;;;;;;;;;;4966732;28;20096;-89
2022/05/18 04:36:05;;;;;;;8.65;5.18;;;;;;;;;;4960010;28;20031;-89
2022/05/18 04:38:32;;;;;;;14.85;6.50;;;;;;;;;;4964845;28;20038;-89
2022/05/18 04:41:04;;;;;;;8.85;5.20;;;;;;;;;;4982848;28;20065;-89
2022/05/18 04:43:32;;;;;;;10.07;5.20;;;;;;;;;;4968513;28;20514;-89
2022/05/18 04:45:58;;;;;;;10.20;5.85;;;;;;;;;;4983865;28;20027;-89
2022/05/18 04:48:27;;;;;;;13.98;5.72;;;;;;;;;;4979551;28;20030;-89
2022/05/18 04:50:55;;;;;;;10.88;5.82;;;;;;;;;;4968054;28;20042;-89
2022/05/18 04:53:21;;;;;;;10.23;6.40;;;;;;;;;;4966856;28;20041;-89
2022/05/18 04:55:49;;;;;;;9.73;5.55;;;;;;;;;;4968336;28;20030;-89
2022/05/18 04:58:15;;;;;;;14.25;7.45;;;;;;;;;;4969950;28;20029;-90
2022/05/18 05:00:42;;;;;;;12.55;6.25;;;;;;;;;;4965321;28;20069;-90
2022/05/18 05:03:08;;;;;;;9.65;6.07;;;;;;;;;;4968916;28;20042;-90
2022/05/18 05:05:34;;;;;;;12.85;6.07;;;;;;;;;;4966530;28;20030;-90
2022/05/18 05:08:00;;;;;;;11.45;6.57;;;;;;;;;;4965587;28;20069;-90
2022/05/18 05:10:27;;;;;;;9.43;6.18;;;;;;;;;;4966531;28;20076;-90
2022/05/18 05:12:53;;;;;;;14.40;6.63;;;;;;;;;;4989793;28;20026;-89
2022/05/18 05:15:19;;;;;;;14.35;6.72;;;;;;;;;;4973481;28;20535;-89
2022/05/18 05:17:45;;;;;;;12.77;6.97;;;;;;;;;;4987414;28;20209;-90
2022/05/18 05:20:12;;;;;;;10.57;6.18;;;;;;;;;;4971301;28;20501;-90
2022/05/18 05:22:38;;;;;;;15.75;7.22;;;;;;;;;;4970740;28;20042;-89
2022/05/18 05:25:04;;;;;;;11.63;6.95;;;;;;;;;;4969136;28;20042;-89
2022/05/18 05:27:30;;;;;;;10.93;6.40;;;;;;;;;;4972320;28;20041;-90
2022/05/18 05:29:56;;;;;;;12.07;6.45;;;;;;;;;;4969403;28;20035;-90
2022/05/18 05:32:25;;;;;;;10.27;5.63;;;;;;;;;;4967054;28;20046;-90
2022/05/18 05:34:51;;;;;;;9.57;5.90;;;;;;;;;;4968890;28;20110;-90
2022/05/18 05:37:17;;;;;;;14.63;5.85;;;;;;;;;;4964479;28;20662;-90
2022/05/18 05:39:43;;;;;;;9.65;6.63;;;;;;;;;;4969722;28;20122;-89
2022/05/18 05:42:09;;;;;;;12.70;6.82;;;;;;;;;;4971664;28;20070;-90
2022/05/18 05:44:35;;;;;;;15.27;7.10;;;;;;;;;;4964244;28;20030;-90
2022/05/18 05:47:05;;;;;;;13.77;6.80;;;;;;;;;;4970483;28;20096;-90
2022/05/18 05:49:30;;;;;;;11.98;6.50;;;;;;;;;;4968853;28;20061;-90
2022/05/18 05:51:57;;;;;;;14.40;7.90;;;;;;;;;;4966297;28;20132;-94
2022/05/18 05:54:29;;;;;;;11.65;6.97;;;;;;;;;;4981411;28;20093;-95
2022/05/18 05:57:04;;;;;;;14.18;7.22;;;;;;;;;;4970967;28;20027;-94
2022/05/18 05:59:31;;;;;;;15.90;6.75;;;;;;;;;;4970611;28;20026;-94
2022/05/18 06:05:03;;;;;;;15.75;7.07;;;;;;;;;;4979966;28;20112;-91
2022/05/18 06:07:34;;;;;;;11.70;6.60;;;;;;;;;;4985182;28;20030;-94
2022/05/18 06:10:00;;;;;;;8.60;6.78;;;;;;;;;;4962444;28;20041;-92
2022/05/18 06:12:27;;;;;;;19.42;7.13;;;;;;;;;;4966182;28;20038;-89
2022/05/18 06:14:54;;;;;;;14.93;6.82;;;;;;;;;;4965631;28;20495;-88
2022/05/18 06:17:20;;;;;;;13.57;7.50;;;;;;;;;;4962084;28;20406;-87
2022/05/18 06:19:46;;;;;;;14.13;7.03;;;;;;;;;;4966086;28;20379;-87
2022/05/18 06:22:12;;;;;;;15.40;6.93;;;;;;;;;;4983819;28;20184;-88
2022/05/18 06:24:40;;;;;;;19.95;8.40;;;;;;;;;;4965718;28;20043;-87
2022/05/18 06:27:06;;;;;;;17.92;7.70;;;;;;;;;;4977555;28;20041;-89
2022/05/18 06:29:32;;;;;;;12.02;6.95;;;;;;;;;;4983552;28;20034;-87
2022/05/18 06:31:58;;;;;;;13.20;7.03;;;;;;;;;;4962630;28;20073;-88
2022/05/18 06:34:24;;;;;;;16.15;7.10;;;;;;;;;;4978289;28;20390;-87
2022/05/18 06:36:50;;;;;;;29.00;8.90;;;;;;;;;;4963705;28;20457;-89
2022/05/18 06:39:18;;;;;;;12.57;7.20;;;;;;;;;;4960305;28;20162;-89
2022/05/18 06:41:44;;;;;;;12.65;7.78;;;;;;;;;;4966043;28;20056;-89
2022/05/18 06:44:10;;;;;;;15.20;6.93;;;;;;;;;;4960069;28;20113;-88
2022/05/18 06:46:44;;;;;;;15.32;7.95;;;;;;;;;;4957518;28;20566;-90
2022/05/18 06:49:11;;;;;;;15.15;7.45;;;;;;;;;;4952485;28;20026;-90
2022/05/18 06:51:39;;;;;;;14.35;8.20;;;;;;;;;;4961278;28;20042;-88
2022/05/18 06:54:06;;;;;;;12.90;6.95;;;;;;;;;;4952553;28;20103;-89
2022/05/18 06:56:33;;;;;;;14.40;7.05;;;;;;;;;;4964525;28;20121;-90
2022/05/18 06:59:00;;;;;;;20.98;8.15;;;;;;;;;;4978481;28;20037;-87
2022/05/18 07:01:28;;;;;;;22.70;8.77;;;;;;;;;;4973905;28;20034;-89
2022/05/18 07:03:54;;;;;;;23.38;8.43;;;;;;;;;;4959858;28;20165;-89
2022/05/18 07:06:22;;;;;;;16.50;8.55;;;;;;;;;;4978669;28;20030;-87
2022/05/18 07:08:51;;;;;;;14.45;8.15;;;;;;;;;;4954586;28;20027;-88
2022/05/18 07:11:17;;;;;;;15.35;7.82;;;;;;;;;;4958387;28;20071;-85
2022/05/18 07:13:43;;;;;;;14.02;8.35;;;;;;;;;;4977553;28;20037;-85
2022/05/18 07:16:09;;;;;;;14.52;8.25;;;;;;;;;;4966306;28;20097;-83
2022/05/18 07:18:35;;;;;;;15.45;8.05;;;;;;;;;;4973750;28;20513;-84
2022/05/18 07:21:03;;;;;;;20.38;8.55;;;;;;;;;;4964888;28;20041;-84
2022/05/18 07:23:29;;;;;;;17.83;8.10;;;;;;;;;;4965419;28;20042;-84
2022/05/18 07:25:56;;;;;;;14.77;8.15;;;;;;;;;;4954706;28;20030;-84
2022/05/18 07:28:22;;;;;;;12.38;6.97;;;;;;;;;;4956591;28;20034;-84
2022/05/18 07:30:49;;;;;;;15.88;7.60;;;;;;;;;;4980706;28;20434;-84
2022/05/18 07:33:28;;;;;;;15.18;7.88;;;;;;;;;;4961254;28;20649;-84
2022/05/18 07:36:01;;;;;;;15.70;7.43;;;;;;;;;;4984016;28;20049;-86
2022/05/18 07:38:29;;;;;;;18.05;8.23;;;;;;;;;;4982922;28;20046;-86
2022/05/18 07:40:55;;;;;;;41.55;9.50;;;;;;;;;;4958070;28;20157;-85
2022/05/18 07:43:21;;;;;;;15.40;7.97;;;;;;;;;;4955517;28;20030;-84
2022/05/18 07:45:49;;;;;;;16.17;7.15;;;;;;;;;;4957077;28;20030;-84
2022/05/18 07:48:15;;;;;;;14.55;7.65;;;;;;;;;;4965445;28;20108;-85
2022/05/18 07:50:41;;;;;;;26.05;7.13;;;;;;;;;;4960662;28;20101;-85
2022/05/18 07:53:07;;;;;;;11.07;7.07;;;;;;;;;;4963863;28;20039;-85
2022/05/18 07:55:33;;;;;;;13.30;6.70;;;;;;;;;;4964554;28;20053;-85
2022/05/18 07:58:03;;;;;;;15.48;6.10;;;;;;;;;;4980095;28;20022;-85
2022/05/18 08:00:29;;;;;;;13.32;5.65;;;;;;;;;;4962037;28;20035;-85
2022/05/18 08:02:55;;;;;;;8.85;6.18;;;;;;;;;;4979663;28;20037;-85
2022/05/18 08:05:21;;;;;;;12.05;5.18;;;;;;;;;;4952069;28;20808;-84
2022/05/18 08:07:47;;;;;;;8.05;4.60;;;;;;;;;;4980379;28;20384;-85
2022/05/18 08:15:44;;;;;;;38.33;5.90;;;;;;;;;;4974385;28;20045;-86
2022/05/18 08:18:11;;;;;;;80.88;9.02;;;;;;;;;;4962852;28;20039;-87
2022/05/18 08:20:39;;;;;;;14.20;4.60;;;;;;;;;;4979654;28;20085;-89
2022/05/18 08:23:05;;;;;;;10.73;5.40;;;;;;;;;;4955519;28;20058;-88
2022/05/18 08:25:31;;;;;;;10.40;4.45;;;;;;;;;;4961410;28;20493;-87
2022/05/18 08:27:57;;;;;;;17.50;4.45;;;;;;;;;;4967598;28;20034;-89
2022/05/18 08:30:23;;;;;;;9.23;4.07;;;;;;;;;;4957999;28;20026;-87
2022/05/18 08:32:50;;;;;;;6.68;4.10;;;;;;;;;;4975943;28;20030;-86
2022/05/18 08:35:17;;;;;;;8.55;3.60;;;;;;;;;;4982367;28;20065;-86
2022/05/18 08:37:44;;;;;;;5.43;3.17;;;;;;;;;;4952533;28;20475;-87
2022/05/18 08:40:31;;;;;;;10.77;3.72;;;;;;;;;;4964922;28;20520;-89
2022/05/18 08:43:02;;;;;;;6.80;3.17;;;;;;;;;;4926760;28;20094;-88
2022/05/18 08:45:33;;;;;;;10.27;3.55;;;;;;;;;;4962202;28;20510;-88
2022/05/18 08:48:09;;;;;;;11.02;3.75;;;;;;;;;;4962701;28;20038;-87
2022/05/18 08:50:37;;;;;;;11.35;3.70;;;;;;;;;;4962201;28;20093;-88
2022/05/18 08:53:06;;;;;;;4.95;3.38;;;;;;;;;;4956652;28;20101;-89
2022/05/18 08:55:51;;;;;;;7.35;3.50;;;;;;;;;;4961867;28;20022;-88
2022/05/18 08:58:29;;;;;;;7.43;3.33;;;;;;;;;;4950977;28;20494;-87
2022/05/18 09:00:58;;;;;;;6.63;3.38;;;;;;;;;;4955275;28;22103;-89
2022/05/18 09:03:51;;;;;;;9.65;2.80;;;;;;;;;;4957307;28;20606;-89
2022/05/18 09:06:27;;;;;;;9.30;2.97;;;;;;;;;;4959104;28;20067;-90
2022/05/18 09:11:41;;;;;;;3.40;2.20;;;;;;;;;;4982394;28;20376;-91
2022/05/18 09:14:10;;;;;;;7.15;3.00;;;;;;;;;;4964229;28;20034;-90
2022/05/18 09:16:36;;;;;;;3.72;2.55;;;;;;;;;;4957527;28;20513;-90
2022/05/18 09:19:28;;;;;;;6.28;3.28;;;;;;;;;;4959941;28;20030;-90
2022/05/18 09:22:02;;;;;;;6.97;2.80;;;;;;;;;;4981363;28;20398;-90
2022/05/18 09:24:28;;;;;;;4.38;2.83;;;;;;;;;;4969065;28;20038;-90
2022/05/18 09:27:13;;;;;;;6.80;3.03;;;;;;;;;;4971902;28;20038;-87
2022/05/18 09:29:44;;;;;;;12.47;3.07;;;;;;;;;;4968987;28;20070;-88
2022/05/18 09:32:19;;;;;;;10.93;2.70;;;;;;;;;;4971567;28;20498;-87
2022/05/18 09:34:56;;;;;;;13.32;4.55;;;;;;;;;;4974630;28;20082;-85
2022/05/18 09:37:24;;;;;;;3.67;2.72;;;;;;;;;;4984283;28;20031;-87
2022/05/18 09:39:53;;;;;;;8.85;3.75;;;;;;;;;;4988070;28;20457;-87
2022/05/18 09:42:23;;;;;;;7.80;3.85;;;;;;;;;;4990602;28;20060;-85
2022/05/18 09:44:56;;;;;;;12.13;4.25;;;;;;;;;;4967811;28;20030;-86
2022/05/18 09:47:24;;;;;;;5.13;3.80;;;;;;;;;;4965437;28;20041;-85
2022/05/18 09:49:51;;;;;;;12.40;3.55;;;;;;;;;;4975884;28;20035;-87
2022/05/18 09:52:20;;;;;;;12.13;4.40;;;;;;;;;;4959352;28;20055;-89
2022/05/18 09:54:46;;;;;;;7.45;3.65;;;;;;;;;;4985773;28;20030;-87
2022/05/18 09:57:12;;;;;;;6.97;3.90;;;;;;;;;;4983840;28;20035;-89
2022/05/18 09:59:45;;;;;;;8.57;4.60;;;;;;;;;;4984234;28;20077;-88
2022/05/18 10:07:57;;;;;;;8.50;4.38;;;;;;;;;;4978315;28;20517;-88
2022/05/18 10:10:26;;;;;;;12.55;4.80;;;;;;;;;;4976874;28;20494;-88
2022/05/18 10:12:57;;;;;;;9.80;5.43;;;;;;;;;;4953931;28;21205;-88
2022/05/18 10:15:26;;;;;;;8.77;4.80;;;;;;;;;;4978958;28;20050;-88
2022/05/18 10:17:55;;;;;;;14.07;4.32;;;;;;;;;;4964234;28;20598;-88
2022/05/18 10:20:29;;;;;;;22.52;6.55;;;;;;;;;;4963198;28;20136;-88
2022/05/18 10:22:56;;;;;;;10.98;4.45;;;;;;;;;;4980543;28;20034;-89
2022/05/18 10:25:22;;;;;;;9.85;3.92;;;;;;;;;;4967969;28;20038;-88
2022/05/18 10:27:49;;;;;;;8.93;4.13;;;;;;;;;;4965146;28;20343;-88
2022/05/18 10:30:16;;;;;;;8.43;3.70;;;;;;;;;;4962634;28;20477;-88
2022/05/18 10:32:53;;;;;;;7.45;4.25;;;;;;;;;;4957278;28;20520;-89
2022/05/18 10:35:38;;;;;;;12.57;4.30;;;;;;;;;;4984795;28;20184;-88
2022/05/18 10:38:15;;;;;;;5.47;3.93;;;;;;;;;;4981317;28;20398;-89
2022/05/18 10:40:49;;;;;;;7.68;4.00;;;;;;;;;;4963370;28;20105;-89
2022/05/18 10:43:18;;;;;;;11.98;6.07;;;;;;;;;;4980530;28;20762;-88
2022/05/18 10:45:53;;;;;;;7.47;4.53;;;;;;;;;;4968924;28;20419;-89
2022/05/18 10:48:21;;;;;;;8.52;4.60;;;;;;;;;;4960008;28;20038;-89
2022/05/18 10:50:48;;;;;;;16.63;5.65;;;;;;;;;;4978461;28;20038;-88
2022/05/18 10:53:15;;;;;;;11.30;5.22;;;;;;;;;;4956471;28;20029;-89
2022/05/18 10:56:03;;;;;;;13.57;5.80;;;;;;;;;;4957712;28;20540;-88
2022/05/18 10:58:32;;;;;;;8.18;4.95;;;;;;;;;;4964496;28;20524;-88
2022/05/18 11:00:59;;;;;;;9.32;4.95;;;;;;;;;;4962186;28;20388;-87
2022/05/18 11:03:44;;;;;;;10.07;4.63;;;;;;;;;;4954382;28;20456;-89
2022/05/18 11:06:30;;;;;;;10.20;6.10;;;;;;;;;;4952755;28;20066;-89
2022/05/18 11:09:01;;;;;;;12.45;6.50;;;;;;;;;;4968523;28;20031;-88
2022/05/18 11:11:36;;;;;;;11.48;5.40;;;;;;;;;;4960281;28;20034;-89
2022/05/18 11:14:21;;;;;;;9.90;5.22;;;;;;;;;;4960960;28;20100;-90
2022/05/18 11:16:46;;;;;;;12.83;5.17;;;;;;;;;;4952822;28;20149;-89
2022/05/18 11:19:19;;;;;;;12.68;6.90;;;;;;;;;;4960717;28;20213;-90
2022/05/18 11:21:54;;;;;;;9.77;6.65;;;;;;;;;;4962406;28;20034;-90
2022/05/18 11:24:30;;;;;;;9.43;5.28;;;;;;;;;;4959409;28;20498;-90
2022/05/18 11:27:02;;;;;;;14.80;6.00;;;;;;;;;;4963471;28;20038;-87
2022/05/18 11:29:47;;;;;;;9.30;5.78;;;;;;;;;;4957502;28;20093;-88
2022/05/18 11:32:22;;;;;;;13.02;6.35;;;;;;;;;;4954013;28;20042;-88
2022/05/18 11:35:04;;;;;;;13.60;5.97;;;;;;;;;;4957398;28;20026;-87
2022/05/18 11:37:46;;;;;;;10.90;5.68;;;;;;;;;;4955315;28;20502;-87
2022/05/18 11:40:22;;;;;;;23.40;6.57;;;;;;;;;;4971253;28;20049;-86
2022/05/18 11:43:28;;;;;;;10.27;7.68;;;;;;;;;;4962044;28;20754;-87
2022/05/18 11:45:54;;;;;;;;;;;;;;;;;;4978704;28;20038;-88
2022/05/18 11:48:28;;;;;;;12.00;6.47;;;;;;;;;;4967671;28;20328;-88
2022/05/18 11:51:11;;;;;;;13.57;5.53;;;;;;;;;;4954629;28;20811;-87
2022/05/18 11:53:45;;;;;;;10.13;5.72;;;;;;;;;;4980569;28;20030;-88
2022/05/18 11:56:23;;;;;;;12.70;6.97;;;;;;;;;;4962812;28;20530;-88
2022/05/18 11:59:23;;;;;;;15.48;6.68;;;;;;;;;;4965613;28;20034;-89
2022/05/18 12:02:01;;;;;;;11.65;6.13;;;;;;;;;;4960582;28;20030;-89
2022/05/18 12:04:41;;;;;;;10.00;4.43;;;;;;;;;;4953443;28;20035;-89
2022/05/18 12:07:18;;;;;;;10.82;4.78;;;;;;;;;;4960999;28;20034;-89
2022/05/18 12:09:59;;;;;;;16.67;7.88;;;;;;;;;;4968287;28;20030;-89
2022/05/18 12:12:35;;;;;;;12.10;8.20;;;;;;;;;;4978125;28;20398;-88
2022/05/18 12:15:01;;;;;;;15.35;7.50;;;;;;;;;;4959081;28;20168;-90
2022/05/18 12:17:43;;;;;;;17.75;8.85;;;;;;;;;;4965778;28;20030;-90
2022/05/18 12:20:28;;;;;;;14.93;6.78;;;;;;;;;;4981370;28;20027;-90
2022/05/18 12:22:55;;;;;;;16.35;7.85;;;;;;;;;;4986762;28;20042;-88
2022/05/18 12:25:23;;;;;;;13.77;8.35;;;;;;;;;;4967828;28;20045;-89
2022/05/18 12:27:51;;;;;;;17.60;8.27;;;;;;;;;;4964944;28;20146;-89
2022/05/18 12:30:18;;;;;;;12.82;8.50;;;;;;;;;;4983405;28;20070;-89
2022/05/18 12:32:45;;;;;;;15.38;9.40;;;;;;;;;;4965496;28;20432;-89
2022/05/18 12:35:20;;;;;;;14.20;8.70;;;;;;;;;;4965031;28;20533;-89
2022/05/18 12:38:03;;;;;;;16.10;9.30;;;;;;;;;;4984756;28;20055;-89
2022/05/18 12:40:35;;;;;;;17.98;9.38;;;;;;;;;;4966802;28;20030;-88
2022/05/18 12:43:19;;;;;;;15.20;7.32;;;;;;;;;;4965800;28;20034;-89
2022/05/18 12:45:49;;;;;;;17.83;9.00;;;;;;;;;;4958941;28;20035;-89
2022/05/18 12:48:20;;;;;;;39.50;8.98;;;;;;;;;;4960963;28;20045;-88
2022/05/18 12:51:05;;;;;;;19.30;9.57;;;;;;;;;;4957965;28;20873;-88
2022/05/18 12:53:44;;;;;;;21.27;8.68;;;;;;;;;;4971636;28;20030;-88
2022/05/18 12:56:15;;;;;;;18.00;8.63;;;;;;;;;;4988412;28;20081;-88
2022/05/18 12:58:45;;;;;;;13.82;7.32;;;;;;;;;;4986088;28;20070;-88
2022/05/18 13:01:13;;;;;;;10.15;6.70;;;;;;;;;;4956548;28;20031;-89
2022/05/18 13:03:42;;;;;;;14.00;6.40;;;;;;;;;;4973080;28;20041;-88
2022/05/18 13:06:16;;;;;;;13.25;6.90;;;;;;;;;;4963051;28;20038;-88
2022/05/18 13:08:48;;;;;;;15.85;6.63;;;;;;;;;;4964712;28;20041;-87
2022/05/18 13:11:14;;;;;;;17.65;7.82;;;;;;;;;;4959725;28;20022;-88
2022/05/18 13:13:59;;;;;;;42.45;16.00;;;;;;;;;;4955900;28;20027;-88
2022/05/18 13:16:45;;;;;;;38.78;16.38;;;;;;;;;;4986433;28;20026;-88
2022/05/18 13:19:14;;;;;;;23.88;14.43;;;;;;;;;;4923007;28;20512;-88
2022/05/18 13:21:48;;;;;;;34.35;13.95;;;;;;;;;;4965768;28;20034;-88
2022/05/18 13:24:18;;;;;;;33.53;15.55;;;;;;;;;;4976672;28;20054;-88
2022/05/18 13:26:48;;;;;;;27.75;14.35;;;;;;;;;;4966815;28;20254;-87
2022/05/18 13:29:16;;;;;;;293.15;34.97;;;;;;;;;;4965504;28;20042;-88
2022/05/18 13:31:45;;;;;;;137.25;22.65;;;;;;;;;;4973403;28;20034;-88
2022/05/18 13:34:18;;;;;;;32.40;15.98;;;;;;;;;;4976077;28;20061;-87
2022/05/18 13:36:51;;;;;;;33.20;15.75;;;;;;;;;;4977201;28;20047;-88
2022/05/18 13:39:22;;;;;;;28.13;14.88;;;;;;;;;;4979287;28;20478;-87
2022/05/18 13:41:48;;;;;;;34.70;15.82;;;;;;;;;;4967567;28;20026;-88
2022/05/18 13:44:14;;;;;;;36.20;15.18;;;;;;;;;;4969684;28;20092;-88
2022/05/18 13:46:48;;;;;;;29.35;17.77;;;;;;;;;;4970614;28;20398;-96
2022/05/18 13:49:16;;;;;;;34.13;15.43;;;;;;;;;;4970053;28;20041;-88
2022/05/18 13:51:45;;;;;;;35.88;15.48;;;;;;;;;;4967263;28;20093;-88
2022/05/18 13:54:13;;;;;;;34.17;14.80;;;;;;;;;;4967595;28;20093;-88
2022/05/18 13:56:43;;;;;;;32.30;17.20;;;;;;;;;;4983558;28;20101;-89
2022/05/18 13:59:11;;;;;;;31.98;17.88;;;;;;;;;;4970748;28;20235;-89
2022/05/18 14:01:47;;;;;;;39.70;16.27;;;;;;;;;;4968253;28;20034;-90
2022/05/18 14:04:17;;;;;;;28.17;16.85;;;;;;;;;;4971082;28;20081;-90
2022/05/18 14:06:48;;;;;;;29.38;17.35;;;;;;;;;;4966573;28;20073;-91
2022/05/18 14:09:17;;;;;;;36.42;16.20;;;;;;;;;;4972462;28;20541;-91
2022/05/18 14:14:50;;;;;;;34.83;16.77;;;;;;;;;;4985350;28;20053;-90
2022/05/18 14:17:19;;;;;;;27.55;16.38;;;;;;;;;;4968316;28;20030;-91
2022/05/18 14:19:48;;;;;;;28.48;17.63;;;;;;;;;;4984132;28;20105;-94
2022/05/18 14:22:15;;;;;;;35.58;15.48;;;;;;;;;;4982268;28;20034;-93
2022/05/18 14:25:01;;;;;;;32.63;15.48;;;;;;;;;;4966948;28;20034;-92
2022/05/18 14:27:30;;;;;;;31.02;17.48;;;;;;;;;;4963748;28;20474;-90
2022/05/18 14:30:00;;;;;;;31.80;16.73;;;;;;;;;;4965458;28;20061;-91
2022/05/18 14:32:29;;;;;;;31.55;15.35;;;;;;;;;;4980331;28;20419;-90
2022/05/18 14:35:04;;;;;;;25.23;15.52;;;;;;;;;;4969202;28;20045;-96
2022/05/18 14:37:32;;;;;;;27.58;15.68;;;;;;;;;;4967497;28;20054;-90
2022/05/18 14:40:03;;;;;;;31.80;17.13;;;;;;;;;;4977122;28;20564;-91
2022/05/18 14:42:30;;;;;;;27.55;14.35;;;;;;;;;;4967784;28;20359;-92
2022/05/18 14:45:03;;;;;;;25.85;13.23;;;;;;;;;;4966063;28;20038;-91
2022/05/18 14:47:32;;;;;;;30.52;13.43;;;;;;;;;;4980596;28;20122;-92
2022/05/18 14:50:17;;;;;;;26.70;13.45;;;;;;;;;;4954747;28;20637;-96
2022/05/18 14:53:03;;;;;;;24.33;13.13;;;;;;;;;;4962668;28;20185;-91
2022/05/18 14:55:36;;;;;;;24.05;13.73;;;;;;;;;;4977642;28;20557;-91
2022/05/18 14:58:02;;;;;;;31.33;13.60;;;;;;;;;;4963438;28;20023;-91
2022/05/18 15:00:34;;;;;;;35.70;16.08;;;;;;;;;;4979238;28;20033;-90
2022/05/18 15:03:04;;;;;;;28.63;14.32;;;;;;;;;;4966579;28;20034;-89
2022/05/18 15:05:31;;;;;;;25.83;12.88;;;;;;;;;;4966160;28;20482;-89
2022/05/18 15:07:59;;;;;;;31.23;14.55;;;;;;;;;;4978478;28;20046;-90
2022/05/18 15:10:35;;;;;;;31.70;16.73;;;;;;;;;;4964038;28;20059;-90